Time;durP1;ratioP1;P1;durP2;ratioP2;P2;SDS_P1;SDS_P2;PMS_P1;PMS_P2;Temp;Humidity;BMP_temperature;BMP_pressure;BME280_temperature;BME280_humidity;BME280_pressure;Samples;Min_cycle;Max_cycle;Signal;HPM_P1;HPM_P2
2022/11/18 00:01:56;;;;;;;8.27;3.30;;;;;;;-146.73;100.00;56421.06;5995608;23;20102;-95
2022/11/18 00:04:32;;;;;;;7.97;3.13;;;;;;;-146.73;100.00;56421.06;5988215;23;20024;-96
2022/11/18 00:07:56;;;;;;;8.85;3.28;;;;;;;-146.73;100.00;56421.06;6001612;23;20038;-95
2022/11/18 00:14:30;;;;;;;8.45;2.95;;;;;;;-146.73;100.00;56421.06;6010140;23;20076;-96
2022/11/18 00:17:12;;;;;;;7.65;2.92;;;;;;;-146.73;100.00;56421.06;5981172;23;20056;-95
2022/11/18 00:19:51;;;;;;;7.70;3.22;;;;;;;-146.73;100.00;56421.06;6010835;23;20307;-94
2022/11/18 00:22:46;;;;;;;9.48;3.60;;;;;;;-146.73;100.00;56421.06;6010381;23;20011;-96
2022/11/18 00:25:21;;;;;;;8.85;3.70;;;;;;;-146.73;100.00;56421.06;5988710;23;20027;-95
2022/11/18 00:28:26;;;;;;;8.95;3.30;;;;;;;-146.73;100.00;56421.06;5988586;23;20019;-96
2022/11/18 00:32:00;;;;;;;8.43;3.60;;;;;;;-146.73;100.00;56421.06;5964188;23;20020;-96
2022/11/18 00:34:54;;;;;;;9.38;3.88;;;;;;;-146.73;100.00;56421.06;6015498;23;20016;-96
2022/11/18 00:38:00;;;;;;;10.05;3.78;;;;;;;-146.73;100.00;56421.06;6065531;23;20014;-96
2022/11/18 00:40:40;;;;;;;8.15;3.38;;;;;;;-146.73;100.00;56421.06;6093992;23;20018;-94
2022/11/18 00:43:34;;;;;;;8.15;3.25;;;;;;;-146.73;100.00;56421.06;6060914;23;20015;-95
2022/11/18 00:52:59;;;;;;;8.75;2.80;;;;;;;-146.73;100.00;56421.06;6052424;23;20068;-94
2022/11/18 00:55:34;;;;;;;7.22;2.60;;;;;;;-146.73;100.00;56421.06;6046995;23;20034;-96
2022/11/18 00:58:53;;;;;;;7.05;2.67;;;;;;;-146.73;100.00;56421.06;6028884;23;20022;-95
2022/11/18 01:01:19;;;;;;;7.22;2.45;;;;;;;-146.73;100.00;56421.06;5951188;23;20004;-94
2022/11/18 01:20:04;;;;;;;;;;;;;;;;;;;;;
2022/11/18 01:22:56;;;;;;;7.00;2.80;;;;;;;-146.73;100.00;56421.06;6069892;23;20011;-94
2022/11/18 01:33:56;;;;;;;6.88;2.97;;;;;;;-146.73;100.00;56421.06;6117344;23;20070;-94
2022/11/18 01:39:33;;;;;;;8.75;3.25;;;;;;;-146.73;100.00;56421.06;6036615;23;20064;-94
2022/11/18 01:42:08;;;;;;;;;;;;;;;;;;;;;
2022/11/18 01:55:44;;;;;;;10.75;3.92;;;;;;;-146.73;100.00;56421.06;6036028;23;20022;-94
2022/11/18 02:14:43;;;;;;;;;;;;;;;-146.73;100.00;56421.06;6019440;23;20065;-94
2022/11/18 02:24:29;;;;;;;10.35;2.70;;;;;;;-146.73;100.00;56421.06;6012218;23;20025;-93
2022/11/18 02:27:43;;;;;;;9.03;2.80;;;;;;;-146.73;100.00;56421.06;5987574;23;20091;-94
2022/11/18 02:30:18;;;;;;;7.47;2.63;;;;;;;-146.73;100.00;56421.06;5987927;23;20095;-94
2022/11/18 02:33:08;;;;;;;9.43;2.58;;;;;;;-146.73;100.00;56421.06;6011770;23;20031;-95
2022/11/18 02:35:53;;;;;;;7.18;2.45;;;;;;;-146.73;100.00;56421.06;5985522;23;20012;-95
2022/11/18 02:39:05;;;;;;;7.55;2.70;;;;;;;-146.73;100.00;56421.06;6009424;23;20004;-95
2022/11/18 02:41:40;;;;;;;6.15;2.17;;;;;;;-146.73;100.00;56421.06;6058292;23;20038;-95
2022/11/18 02:44:43;;;;;;;;;;;;;;;;;;;;;
2022/11/18 02:47:20;;;;;;;9.52;2.17;;;;;;;-146.73;100.00;56421.06;6093157;23;20099;-94
2022/11/18 02:50:18;;;;;;;6.80;2.55;;;;;;;-146.73;100.00;56421.06;6072786;23;20504;-94
2022/11/18 02:53:25;;;;;;;;;;;;;;;;;;;;;
2022/11/18 02:56:20;;;;;;;6.10;1.88;;;;;;;-146.73;100.00;56421.06;6042066;23;20108;-96
2022/11/18 02:59:19;;;;;;;6.00;1.83;;;;;;;-146.73;100.00;56421.06;6071170;23;20006;-93
2022/11/18 03:04:21;;;;;;;5.95;1.92;;;;;;;-146.73;100.00;56421.06;6031039;23;20027;-93
2022/11/18 03:07:01;;;;;;;9.95;2.50;;;;;;;-146.73;100.00;56421.06;6009744;23;20023;-94
2022/11/18 03:09:33;;;;;;;9.63;2.30;;;;;;;-146.73;100.00;56421.06;6012468;23;20014;-96
2022/11/18 03:12:29;;;;;;;7.43;2.42;;;;;;;-146.73;100.00;56421.06;6010997;23;20015;-93
2022/11/18 03:15:07;;;;;;;8.85;2.70;;;;;;;-146.73;100.00;56421.06;6011198;23;20045;-93
2022/11/18 03:17:50;;;;;;;7.32;2.35;;;;;;;-146.73;100.00;56421.06;6010269;23;20019;-92
2022/11/18 03:20:33;;;;;;;7.57;2.60;;;;;;;-146.73;100.00;56421.06;6007294;23;20453;-94
2022/11/18 03:23:24;;;;;;;7.60;2.10;;;;;;;-146.73;100.00;56421.06;6006410;23;20039;-94
2022/11/18 03:25:55;;;;;;;6.85;2.28;;;;;;;-146.73;100.00;56421.06;6010904;23;20007;-96
2022/11/18 03:28:36;;;;;;;7.22;2.10;;;;;;;-146.73;100.00;56421.06;6011182;23;20023;-93
2022/11/18 03:31:30;;;;;;;7.18;2.13;;;;;;;-146.73;100.00;56421.06;6011138;23;20019;-94
2022/11/18 03:34:01;;;;;;;6.72;2.00;;;;;;;-146.73;100.00;56421.06;6011306;23;20449;-94
2022/11/18 03:36:32;;;;;;;5.70;1.38;;;;;;;-146.73;100.00;56421.06;6010878;23;20007;-93
2022/11/18 03:39:01;;;;;;;6.60;1.73;;;;;;;-146.73;100.00;56421.06;6010318;23;20036;-93
2022/11/18 03:41:31;;;;;;;7.20;1.77;;;;;;;-146.73;100.00;56421.06;6010470;23;20011;-92
2022/11/18 03:44:09;;;;;;;6.65;1.90;;;;;;;-146.73;100.00;56421.06;6010810;23;20031;-94
2022/11/18 03:46:39;;;;;;;6.32;1.70;;;;;;;-146.73;100.00;56421.06;6035764;23;20018;-94
2022/11/18 03:49:09;;;;;;;7.97;1.85;;;;;;;-146.73;100.00;56421.06;6010906;23;20015;-93
2022/11/18 03:51:41;;;;;;;5.53;1.60;;;;;;;-146.73;100.00;56421.06;6010398;23;20011;-92
2022/11/18 03:54:30;;;;;;;8.32;1.77;;;;;;;-146.73;100.00;56421.06;6009952;23;20029;-93
2022/11/18 03:57:04;;;;;;;4.38;1.20;;;;;;;-146.73;100.00;56421.06;6008588;23;20089;-95
2022/11/18 03:59:46;;;;;;;5.00;1.30;;;;;;;-146.73;100.00;56421.06;6030606;23;20015;-94
2022/11/18 04:02:19;;;;;;;6.47;1.40;;;;;;;-146.73;100.00;56421.06;6055162;23;20015;-94
2022/11/18 04:04:49;;;;;;;5.20;1.35;;;;;;;-146.73;100.00;56421.06;6027089;23;20026;-92
2022/11/18 04:07:25;;;;;;;5.63;1.15;;;;;;;-146.73;100.00;56421.06;6064733;23;20018;-94
2022/11/18 04:09:56;;;;;;;4.68;1.33;;;;;;;-146.73;100.00;56421.06;6078577;23;20003;-94
2022/11/18 04:12:28;;;;;;;4.70;1.10;;;;;;;-146.73;100.00;56421.06;6089907;23;20018;-93
2022/11/18 04:14:54;;;;;;;6.00;1.40;;;;;;;-146.73;100.00;56421.06;6068456;23;20023;-94
2022/11/18 04:17:22;;;;;;;5.07;1.42;;;;;;;-146.73;100.00;56421.06;6079391;23;20011;-93
2022/11/18 04:19:48;;;;;;;4.95;0.77;;;;;;;-146.73;100.00;56421.06;6088675;23;20013;-95
2022/11/18 04:22:28;;;;;;;3.53;1.10;;;;;;;-146.73;100.00;56421.06;6081872;23;20382;-95
2022/11/18 04:24:53;;;;;;;5.15;1.33;;;;;;;-146.73;100.00;56421.06;6065533;23;20559;-93
2022/11/18 04:27:19;;;;;;;4.93;1.38;;;;;;;-146.73;100.00;56421.06;6064934;23;20046;-94
2022/11/18 04:29:44;;;;;;;7.47;1.30;;;;;;;-146.73;100.00;56421.06;6065613;23;20030;-94
2022/11/18 04:32:09;;;;;;;5.40;1.30;;;;;;;-146.73;100.00;56421.06;6067337;23;20027;-95
2022/11/18 04:34:35;;;;;;;5.35;1.20;;;;;;;-146.73;100.00;56421.06;6079185;23;20109;-95
2022/11/18 04:37:05;;;;;;;3.80;1.08;;;;;;;-146.73;100.00;56421.06;6074468;23;20044;-95
2022/11/18 04:39:30;;;;;;;5.43;1.15;;;;;;;-146.73;100.00;56421.06;6070915;23;20042;-95
2022/11/18 04:41:56;;;;;;;5.05;1.20;;;;;;;-146.73;100.00;56421.06;6065475;23;20021;-94
2022/11/18 04:44:30;;;;;;;5.53;1.38;;;;;;;-146.73;100.00;56421.06;6063392;23;20014;-95
2022/11/18 04:46:57;;;;;;;4.50;1.00;;;;;;;-146.73;100.00;56421.06;6063449;23;20108;-94
2022/11/18 04:49:25;;;;;;;5.90;1.30;;;;;;;-146.73;100.00;56421.06;6063888;23;20504;-95
2022/11/18 04:51:55;;;;;;;4.28;1.17;;;;;;;-146.73;100.00;56421.06;6063677;23;20018;-94
2022/11/18 04:54:21;;;;;;;5.93;1.42;;;;;;;-146.73;100.00;56421.06;6061847;23;20086;-94
2022/11/18 04:56:47;;;;;;;5.78;0.90;;;;;;;-146.73;100.00;56421.06;6061575;23;20019;-94
2022/11/18 04:59:14;;;;;;;5.05;1.10;;;;;;;-146.73;100.00;56421.06;6061469;23;20053;-95
2022/11/18 05:01:40;;;;;;;5.43;1.10;;;;;;;-146.73;100.00;56421.06;6060402;23;20019;-95
2022/11/18 05:04:06;;;;;;;6.45;1.08;;;;;;;-146.73;100.00;56421.06;6060734;23;20082;-93
2022/11/18 05:06:33;;;;;;;4.47;0.90;;;;;;;-146.73;100.00;56421.06;6010535;23;20011;-96
2022/11/18 05:09:00;;;;;;;5.03;1.05;;;;;;;-146.73;100.00;56421.06;6012077;23;20007;-95
2022/11/18 05:14:11;;;;;;;4.90;1.08;;;;;;;-146.73;100.00;56421.06;6034986;23;20476;-92
2022/11/18 05:16:36;;;;;;;6.13;1.10;;;;;;;-146.73;100.00;56421.06;6009787;23;20012;-94
2022/11/18 05:19:03;;;;;;;3.63;0.70;;;;;;;-146.73;100.00;56421.06;6009739;23;20046;-92
2022/11/18 05:21:30;;;;;;;5.43;1.00;;;;;;;-146.73;100.00;56421.06;6010614;23;20018;-93
2022/11/18 05:23:58;;;;;;;3.90;1.00;;;;;;;-146.73;100.00;56421.06;6010163;23;20019;-94
2022/11/18 05:26:24;;;;;;;6.03;1.38;;;;;;;-146.73;100.00;56421.06;6036044;23;20386;-94
2022/11/18 05:28:53;;;;;;;4.47;0.90;;;;;;;-146.73;100.00;56421.06;6010465;23;20030;-93
2022/11/18 05:31:18;;;;;;;8.40;1.08;;;;;;;-146.73;100.00;56421.06;6035682;23;20003;-93
2022/11/18 05:33:44;;;;;;;3.63;0.95;;;;;;;-146.73;100.00;56421.06;6009495;23;20023;-93
2022/11/18 05:36:12;;;;;;;5.25;1.23;;;;;;;-146.73;100.00;56421.06;6009995;23;20524;-94
2022/11/18 05:38:40;;;;;;;3.80;0.75;;;;;;;-146.73;100.00;56421.06;6009814;23;20010;-94
2022/11/18 05:41:06;;;;;;;3.95;0.80;;;;;;;-146.73;100.00;56421.06;6011188;23;20030;-94
2022/11/18 05:43:32;;;;;;;4.75;0.80;;;;;;;-146.73;100.00;56421.06;6011173;23;20022;-95
2022/11/18 05:45:58;;;;;;;2.65;0.73;;;;;;;-146.73;100.00;56421.06;6034514;23;20021;-94
2022/11/18 05:48:23;;;;;;;4.90;0.90;;;;;;;-146.73;100.00;56421.06;6009833;23;20047;-94
2022/11/18 05:50:52;;;;;;;3.90;0.90;;;;;;;-146.73;100.00;56421.06;6034927;23;20014;-95
2022/11/18 05:53:20;;;;;;;2.25;0.63;;;;;;;-146.73;100.00;56421.06;6010579;23;20039;-94
2022/11/18 05:56:06;;;;;;;3.10;0.75;;;;;;;-146.73;100.00;56421.06;6008798;23;20339;-95
2022/11/18 05:58:31;;;;;;;2.22;0.63;;;;;;;-146.73;100.00;56421.06;6008686;23;20528;-93
2022/11/18 06:01:02;;;;;;;3.13;0.80;;;;;;;-146.73;100.00;56421.06;6008713;23;20087;-93
2022/11/18 06:03:30;;;;;;;8.32;1.17;;;;;;;-146.73;100.00;56421.06;6009802;23;20019;-92
2022/11/18 06:05:58;;;;;;;6.50;0.95;;;;;;;-146.73;100.00;56421.06;6050423;23;20503;-93
2022/11/18 06:08:30;;;;;;;4.90;1.08;;;;;;;-146.73;100.00;56421.06;6061640;23;20014;-93
2022/11/18 06:10:56;;;;;;;6.63;1.13;;;;;;;-146.73;100.00;56421.06;6062881;23;20368;-94
2022/11/18 06:13:33;;;;;;;11.32;1.55;;;;;;;-146.73;100.00;56421.06;6066369;23;20030;-95
2022/11/18 06:15:59;;;;;;;5.85;1.02;;;;;;;-146.73;100.00;56421.06;6085740;23;20101;-96
2022/11/18 06:18:30;;;;;;;6.07;1.08;;;;;;;-146.73;100.00;56421.06;6076202;23;20022;-95
2022/11/18 06:20:59;;;;;;;6.45;0.88;;;;;;;-146.73;100.00;56421.06;6064872;23;20011;-94
2022/11/18 06:23:27;;;;;;;5.07;0.82;;;;;;;-146.73;100.00;56421.06;6064705;23;20105;-94
2022/11/18 06:25:53;;;;;;;8.52;1.00;;;;;;;-146.73;100.00;56421.06;6082144;23;20018;-95
2022/11/18 06:28:21;;;;;;;10.77;1.63;;;;;;;-146.73;100.00;56421.06;6084919;23;20011;-95
2022/11/18 06:30:46;;;;;;;6.32;1.10;;;;;;;-146.73;100.00;56421.06;6067131;23;19999;-94
2022/11/18 06:33:12;;;;;;;12.27;1.27;;;;;;;-146.73;100.00;56421.06;6064984;23;20025;-94
2022/11/18 06:35:37;;;;;;;6.95;1.45;;;;;;;-146.73;100.00;56421.06;6064423;23;20054;-95
2022/11/18 06:38:06;;;;;;;8.35;1.10;;;;;;;-146.73;100.00;56421.06;6063144;23;20011;-93
2022/11/18 06:40:31;;;;;;;9.63;1.20;;;;;;;-146.73;100.00;56421.06;6064494;23;20011;-95
2022/11/18 06:46:54;;;;;;;8.20;1.00;;;;;;;-146.73;100.00;56421.06;6065845;23;20098;-94
2022/11/18 06:48:27;;;;;;;7.07;0.93;;;;;;;-146.73;100.00;56421.06;6065389;23;20238;-94
2022/11/18 06:50:56;;;;;;;11.95;1.80;;;;;;;-146.73;100.00;56421.06;6063626;23;20002;-95
2022/11/18 06:53:23;;;;;;;6.53;1.08;;;;;;;-146.73;100.00;56421.06;6063286;23;20467;-96
2022/11/18 06:55:48;;;;;;;4.00;0.90;;;;;;;-146.73;100.00;56421.06;6063730;23;20356;-93
2022/11/18 06:58:14;;;;;;;10.63;1.30;;;;;;;-146.73;100.00;56421.06;6061188;23;20105;-94
2022/11/18 07:00:39;;;;;;;9.95;1.13;;;;;;;-146.73;100.00;56421.06;6062632;23;20014;-95
2022/11/18 07:03:06;;;;;;;7.88;1.10;;;;;;;-146.73;100.00;56421.06;6063512;23;20429;-96
2022/11/18 07:05:31;;;;;;;4.70;0.85;;;;;;;-146.73;100.00;56421.06;6063720;23;20022;-95
2022/11/18 07:07:57;;;;;;;3.85;0.70;;;;;;;-146.73;100.00;56421.06;6064388;23;20018;-94
2022/11/18 07:10:28;;;;;;;22.60;1.73;;;;;;;-146.73;100.00;56421.06;6064139;23;20018;-96
2022/11/18 07:12:53;;;;;;;7.65;0.95;;;;;;;-146.73;100.00;56421.06;6063784;23;20018;-96
2022/11/18 07:15:19;;;;;;;20.52;2.05;;;;;;;-146.73;100.00;56421.06;6063822;23;20030;-96
2022/11/18 07:17:50;;;;;;;6.95;1.35;;;;;;;-146.73;100.00;56421.06;6063312;23;20472;-95
2022/11/18 07:20:16;;;;;;;6.07;1.02;;;;;;;-146.73;100.00;56421.06;6065336;23;20042;-96
2022/11/18 07:23:00;;;;;;;7.10;1.02;;;;;;;-146.73;100.00;56421.06;6064932;23;20034;-94
2022/11/18 07:25:41;;;;;;;5.35;0.80;;;;;;;-146.73;100.00;56421.06;6060081;23;20018;-95
2022/11/18 07:28:07;;;;;;;9.73;1.33;;;;;;;-146.73;100.00;56421.06;6058141;23;20023;-94
2022/11/18 07:30:32;;;;;;;7.32;0.80;;;;;;;-146.73;100.00;56421.06;6058893;23;20449;-94
2022/11/18 07:32:58;;;;;;;4.43;0.88;;;;;;;-146.73;100.00;56421.06;6062150;23;20015;-94
2022/11/18 07:35:29;;;;;;;6.63;1.17;;;;;;;-146.73;100.00;56421.06;6071533;23;19991;-95
2022/11/18 07:37:55;;;;;;;3.30;0.77;;;;;;;-146.73;100.00;56421.06;6084861;23;20084;-92
2022/11/18 07:40:21;;;;;;;4.28;0.90;;;;;;;-146.73;100.00;56421.06;6083561;23;20007;-93
2022/11/18 07:42:46;;;;;;;4.75;0.85;;;;;;;-146.73;100.00;56421.06;6065334;23;20073;-93
2022/11/18 07:45:12;;;;;;;5.78;1.23;;;;;;;-146.73;100.00;56421.06;6065357;23;20614;-93
2022/11/18 07:47:37;;;;;;;5.75;0.80;;;;;;;-146.73;100.00;56421.06;6067452;23;20017;-94
2022/11/18 07:50:04;;;;;;;5.20;0.90;;;;;;;-146.73;100.00;56421.06;6070143;23;20014;-95
2022/11/18 07:52:29;;;;;;;5.03;1.25;;;;;;;-146.73;100.00;56421.06;6087495;23;20025;-95
2022/11/18 07:55:07;;;;;;;4.55;0.70;;;;;;;-146.73;100.00;56421.06;6085522;23;20010;-94
2022/11/18 07:57:55;;;;;;;5.68;0.80;;;;;;;-146.73;100.00;56421.06;6070829;23;20432;-96
2022/11/18 08:00:23;;;;;;;4.60;0.73;;;;;;;-146.73;100.00;56421.06;6067026;23;20025;-96
2022/11/18 08:02:49;;;;;;;6.18;0.95;;;;;;;-146.73;100.00;56421.06;6064393;23;20126;-92
2022/11/18 08:08:10;;;;;;;7.60;1.10;;;;;;;-146.73;100.00;56421.06;6074153;23;20031;-95
2022/11/18 08:10:45;;;;;;;5.93;1.20;;;;;;;-146.73;100.00;56421.06;6062714;23;20018;-96
2022/11/18 08:13:16;;;;;;;5.63;0.93;;;;;;;-146.73;100.00;56421.06;6063449;23;20791;-95
2022/11/18 08:15:42;;;;;;;5.82;0.90;;;;;;;-146.73;100.00;56421.06;6087715;23;20030;-95
2022/11/18 08:18:08;;;;;;;3.22;0.73;;;;;;;-146.73;100.00;56421.06;6063685;23;20014;-93
2022/11/18 08:20:54;;;;;;;4.30;0.60;;;;;;;-146.73;100.00;56421.06;6034857;23;20014;-94
2022/11/18 08:23:30;;;;;;;5.70;0.90;;;;;;;-146.73;100.00;56421.06;6049545;23;20023;-94
2022/11/18 08:29:19;;;;;;;8.40;1.35;;;;;;;-146.73;100.00;56421.06;6160323;23;20432;-96
2022/11/18 08:34:48;;;;;;;5.78;0.80;;;;;;;-146.73;100.00;56421.06;6152822;23;20548;-94
2022/11/18 08:37:23;;;;;;;5.65;1.00;;;;;;;-146.73;100.00;56421.06;6152641;23;20060;-95
2022/11/18 08:39:58;;;;;;;5.03;0.93;;;;;;;-146.73;100.00;56421.06;6138267;23;20002;-94
2022/11/18 08:42:37;;;;;;;6.28;1.00;;;;;;;-146.73;100.00;56421.06;6149997;23;19994;-95
2022/11/18 08:45:19;;;;;;;5.20;0.75;;;;;;;-146.73;100.00;56421.06;6128971;23;20010;-95
2022/11/18 08:47:45;;;;;;;5.07;1.20;;;;;;;-146.73;100.00;56421.06;6124391;23;20056;-96
2022/11/18 08:50:11;;;;;;;6.03;1.10;;;;;;;-146.73;100.00;56421.06;6124664;23;20005;-96
2022/11/18 08:52:50;;;;;;;3.45;0.68;;;;;;;-146.73;100.00;56421.06;6124599;23;20009;-94
2022/11/18 08:55:35;;;;;;;4.25;0.90;;;;;;;-146.73;100.00;56421.06;6125223;23;20462;-95
2022/11/18 08:58:02;;;;;;;4.88;0.68;;;;;;;-146.73;100.00;56421.06;6123772;23;20040;-93
2022/11/18 09:00:37;;;;;;;3.13;0.90;;;;;;;-146.73;100.00;56421.06;6124442;23;20029;-94
2022/11/18 09:03:05;;;;;;;9.00;0.70;;;;;;;-146.73;100.00;56421.06;6124369;23;20037;-94
2022/11/18 09:05:31;;;;;;;4.47;0.90;;;;;;;-146.73;100.00;56421.06;6124039;23;20668;-94
2022/11/18 09:08:04;;;;;;;6.28;1.02;;;;;;;-146.73;100.00;56421.06;6120384;23;20064;-93
2022/11/18 09:10:29;;;;;;;2.40;0.63;;;;;;;-146.73;100.00;56421.06;6124216;23;20790;-94
2022/11/18 09:12:55;;;;;;;3.97;0.90;;;;;;;-146.73;100.00;56421.06;6125508;23;20048;-94
2022/11/18 09:15:22;;;;;;;7.50;0.95;;;;;;;-146.73;100.00;56421.06;6123746;23;20435;-95
2022/11/18 09:17:48;;;;;;;7.35;1.08;;;;;;;-146.73;100.00;56421.06;6123384;23;20101;-93
2022/11/18 09:20:17;;;;;;;3.53;0.68;;;;;;;-146.73;100.00;56421.06;6150195;23;20024;-96
2022/11/18 09:22:43;;;;;;;4.65;0.70;;;;;;;-146.73;100.00;56421.06;6125311;23;20017;-96
2022/11/18 09:25:09;;;;;;;3.60;0.80;;;;;;;-146.73;100.00;56421.06;6124947;23;20052;-94
2022/11/18 09:27:34;;;;;;;4.60;0.77;;;;;;;-146.73;100.00;56421.06;6124936;23;20017;-95
2022/11/18 09:29:59;;;;;;;5.47;0.98;;;;;;;-146.73;100.00;56421.06;6123945;23;20443;-94
2022/11/18 09:32:25;;;;;;;4.13;0.70;;;;;;;-146.73;100.00;56421.06;6123619;23;20020;-93
2022/11/18 09:34:53;;;;;;;5.20;0.77;;;;;;;-146.73;100.00;56421.06;6124454;23;20021;-91
2022/11/18 09:37:18;;;;;;;7.53;0.80;;;;;;;-146.73;100.00;56421.06;6151513;23;20133;-93
2022/11/18 09:39:43;;;;;;;4.53;0.82;;;;;;;-146.73;100.00;56421.06;6125162;23;20443;-95
2022/11/18 09:42:31;;;;;;;6.40;0.70;;;;;;;-146.73;100.00;56421.06;6125693;23;20017;-96
2022/11/18 09:45:11;;;;;;;3.97;1.00;;;;;;;-146.73;100.00;56421.06;6123012;23;20053;-95
2022/11/18 09:47:36;;;;;;;5.97;0.90;;;;;;;-146.73;100.00;56421.06;6124614;23;20025;-94
2022/11/18 09:50:12;;;;;;;3.83;0.70;;;;;;;-146.73;100.00;56421.06;6120622;23;20040;-96
2022/11/18 09:52:56;;;;;;;5.63;0.80;;;;;;;-146.73;100.00;56421.06;6125894;23;20015;-95
2022/11/18 09:55:22;;;;;;;3.20;0.60;;;;;;;-146.73;100.00;56421.06;6146952;23;20013;-92
2022/11/18 09:57:51;;;;;;;4.05;0.80;;;;;;;-146.73;100.00;56421.06;6121957;23;20044;-93
2022/11/18 10:00:27;;;;;;;4.65;0.73;;;;;;;-146.73;100.00;56421.06;6123047;23;20013;-92
2022/11/18 10:02:58;;;;;;;6.55;0.90;;;;;;;-146.73;100.00;56421.06;6124090;23;20103;-94
2022/11/18 10:05:27;;;;;;;5.68;0.68;;;;;;;-146.73;100.00;56421.06;6123716;23;20009;-93
2022/11/18 10:08:11;;;;;;;5.05;0.98;;;;;;;-146.73;100.00;56421.06;6124285;23;20005;-92
2022/11/18 10:10:59;;;;;;;5.70;0.75;;;;;;;-146.73;100.00;56421.06;6150547;23;20060;-94
2022/11/18 10:13:46;;;;;;;6.88;1.05;;;;;;;-146.73;100.00;56421.06;6124030;23;20013;-92
2022/11/18 10:16:30;;;;;;;6.53;1.17;;;;;;;-146.73;100.00;56421.06;6123586;23;20025;-94
2022/11/18 10:19:02;;;;;;;4.03;0.90;;;;;;;-146.73;100.00;56421.06;6147839;23;20017;-93
2022/11/18 10:21:49;;;;;;;4.32;0.75;;;;;;;-146.73;100.00;56421.06;6122740;23;20006;-92
2022/11/18 10:24:19;;;;;;;7.68;1.00;;;;;;;-146.73;100.00;56421.06;6122074;23;20018;-93
2022/11/18 10:26:44;;;;;;;4.28;0.93;;;;;;;-146.73;100.00;56421.06;6124049;23;20037;-92
2022/11/18 10:29:10;;;;;;;6.05;0.80;;;;;;;-146.73;100.00;56421.06;6124389;23;20009;-93
2022/11/18 10:32:19;;;;;;;7.07;0.77;;;;;;;-146.73;100.00;56421.06;6125026;23;20462;-93
2022/11/18 10:34:48;;;;;;;8.80;0.95;;;;;;;-146.73;100.00;56421.06;6146584;23;20160;-93
2022/11/18 10:37:34;;;;;;;5.05;0.80;;;;;;;-146.73;100.00;56421.06;6126039;23;20005;-94
2022/11/18 10:40:01;;;;;;;4.38;0.68;;;;;;;-146.73;100.00;56421.06;6125144;23;20626;-93
2022/11/18 10:42:46;;;;;;;6.78;0.93;;;;;;;-146.73;100.00;56421.06;6132988;23;20008;-94
2022/11/18 10:45:18;;;;;;;3.35;0.80;;;;;;;-146.73;100.00;56421.06;6150029;23;20021;-93
2022/11/18 10:48:08;;;;;;;6.97;0.80;;;;;;;-146.73;100.00;56421.06;6133013;23;20026;-92
2022/11/18 10:50:41;;;;;;;3.60;0.60;;;;;;;-146.73;100.00;56421.06;6127430;23;20021;-94
2022/11/18 10:53:30;;;;;;;5.35;0.70;;;;;;;-146.73;100.00;56421.06;6163288;23;20009;-94
2022/11/18 10:56:03;;;;;;;3.05;0.47;;;;;;;-146.73;100.00;56421.06;6151531;23;20012;-93
2022/11/18 10:58:31;;;;;;;4.22;0.68;;;;;;;-146.73;100.00;56421.06;6178461;23;19997;-93
2022/11/18 11:01:20;;;;;;;4.43;0.63;;;;;;;-146.73;100.00;56421.06;6148489;23;20069;-92
2022/11/18 11:03:58;;;;;;;2.53;0.40;;;;;;;-146.73;100.00;56421.06;6143130;23;20017;-91
2022/11/18 11:06:27;;;;;;;7.13;0.60;;;;;;;-146.73;100.00;56421.06;6167848;23;20017;-93
2022/11/18 11:09:02;;;;;;;5.78;0.90;;;;;;;-146.73;100.00;56421.06;6134110;23;20096;-93
2022/11/18 11:11:53;;;;;;;5.80;0.80;;;;;;;-146.73;100.00;56421.06;6143992;23;20017;-94
2022/11/18 11:14:34;;;;;;;2.85;0.50;;;;;;;-146.73;100.00;56421.06;6149024;23;20014;-93
2022/11/18 11:17:17;;;;;;;3.13;0.60;;;;;;;-146.73;100.00;56421.06;6140777;23;20009;-92
2022/11/18 11:20:05;;;;;;;4.13;1.05;;;;;;;-146.73;100.00;56421.06;6128611;23;20029;-92
2022/11/18 11:22:32;;;;;;;5.28;1.13;;;;;;;-146.73;100.00;56421.06;6153719;23;20060;-93
2022/11/18 11:24:57;;;;;;;6.05;1.65;;;;;;;-146.73;100.00;56421.06;6152254;23;20044;-93
2022/11/18 11:27:50;;;;;;;5.13;1.10;;;;;;;-146.73;100.00;56421.06;6126751;23;20025;-93
2022/11/18 11:30:40;;;;;;;6.35;1.25;;;;;;;-146.73;100.00;56421.06;6123316;23;20005;-94
2022/11/18 11:33:59;;;;;;;4.25;0.80;;;;;;;-146.73;100.00;56421.06;6151614;23;20029;-93
2022/11/18 11:36:35;;;;;;;6.40;1.10;;;;;;;-146.73;100.00;56421.06;6073864;23;20013;-93
2022/11/18 11:39:26;;;;;;;6.25;1.30;;;;;;;-146.73;100.00;56421.06;6153384;23;20013;-92
2022/11/18 11:42:10;;;;;;;6.07;1.40;;;;;;;-146.73;100.00;56421.06;6126174;23;20025;-93
2022/11/18 11:45:13;;;;;;;2.47;0.73;;;;;;;-146.73;100.00;56421.06;6126749;23;20343;-93
2022/11/18 11:48:06;;;;;;;6.85;0.90;;;;;;;-146.73;100.00;56421.06;6126927;23;20454;-94
2022/11/18 11:51:08;;;;;;;5.57;1.17;;;;;;;-146.73;100.00;56421.06;6126514;23;20010;-94
2022/11/18 11:54:08;;;;;;;3.38;0.80;;;;;;;-146.73;100.00;56421.06;6127160;23;20239;-94
2022/11/18 11:56:48;;;;;;;5.28;0.80;;;;;;;-146.73;100.00;56421.06;6127831;23;20482;-92
2022/11/18 11:59:31;;;;;;;3.67;0.70;;;;;;;-146.73;100.00;56421.06;6126994;23;20052;-91
2022/11/18 12:01:56;;;;;;;3.63;0.80;;;;;;;-146.73;100.00;56421.06;6150810;23;20009;-93
2022/11/18 12:04:56;;;;;;;4.80;0.85;;;;;;;-146.73;100.00;56421.06;6154141;23;20036;-92
2022/11/18 12:07:31;;;;;;;2.08;0.40;;;;;;;-146.73;100.00;56421.06;6123500;23;20022;-93
2022/11/18 12:10:36;;;;;;;3.67;0.70;;;;;;;-146.73;100.00;56421.06;6127072;23;20020;-92
2022/11/18 12:13:16;;;;;;;5.25;0.88;;;;;;;-146.73;100.00;56421.06;6152066;23;20005;-92
2022/11/18 12:15:48;;;;;;;2.78;0.60;;;;;;;-146.73;100.00;56421.06;6121547;23;20029;-92
2022/11/18 12:18:25;;;;;;;2.80;0.65;;;;;;;-146.73;100.00;56421.06;6124229;23;20486;-92
2022/11/18 12:20:54;;;;;;;3.72;0.90;;;;;;;-146.73;100.00;56421.06;6150225;23;20002;-91
2022/11/18 12:23:37;;;;;;;4.32;0.70;;;;;;;-146.73;100.00;56421.06;6153595;23;20005;-92
2022/11/18 12:26:32;;;;;;;3.45;0.90;;;;;;;-146.73;100.00;56421.06;6123398;23;20097;-94
2022/11/18 12:29:15;;;;;;;3.90;0.70;;;;;;;-146.73;100.00;56421.06;6152345;23;20010;-96
2022/11/18 12:32:03;;;;;;;3.75;0.70;;;;;;;-146.73;100.00;56421.06;6103467;23;20051;-92
2022/11/18 12:34:38;;;;;;;2.25;0.25;;;;;;;-146.73;100.00;56421.06;6122637;23;20030;-93
2022/11/18 12:37:26;;;;;;;1.38;0.35;;;;;;;-146.73;100.00;56421.06;6120937;23;20014;-93
2022/11/18 12:39:55;;;;;;;2.95;0.50;;;;;;;-146.73;100.00;56421.06;6119707;23;20014;-93
2022/11/18 12:45:50;;;;;;;1.02;0.47;;;;;;;-146.73;100.00;56421.06;6097513;23;20024;-92
2022/11/18 12:48:36;;;;;;;1.52;0.40;;;;;;;-146.73;100.00;56421.06;6124979;23;20044;-93
2022/11/18 12:51:13;;;;;;;1.92;0.40;;;;;;;-146.73;100.00;56421.06;6121563;23;20010;-92
2022/11/18 12:53:45;;;;;;;1.13;0.35;;;;;;;-146.73;100.00;56421.06;6132302;23;20061;-92
2022/11/18 12:56:17;;;;;;;2.03;0.40;;;;;;;-146.73;100.00;56421.06;6148149;23;20006;-92
2022/11/18 12:58:54;;;;;;;2.10;0.60;;;;;;;-146.73;100.00;56421.06;6126095;23;20129;-93
2022/11/18 13:01:24;;;;;;;4.45;0.80;;;;;;;-146.73;100.00;56421.06;6124614;23;20021;-92
2022/11/18 13:04:14;;;;;;;3.17;0.80;;;;;;;-146.73;100.00;56421.06;6128787;23;19998;-95
2022/11/18 13:06:59;;;;;;;;;;;;;;;;;;;;;
2022/11/18 13:09:32;;;;;;;5.25;1.10;;;;;;;-146.73;100.00;56421.06;6119690;23;20088;-93
2022/11/18 13:12:27;;;;;;;3.45;0.70;;;;;;;-146.73;100.00;56421.06;6124036;23;20049;-93
2022/11/18 13:18:21;;;;;;;6.97;0.80;;;;;;;-146.73;100.00;56421.06;6126826;23;20073;-92
2022/11/18 13:23:50;;;;;;;6.97;1.00;;;;;;;-146.73;100.00;56421.06;6125599;23;20064;-94
2022/11/18 13:23:58;;;;;;;4.68;0.60;;;;;;;-146.73;100.00;56421.06;6127300;23;20442;-93
2022/11/18 13:26:34;;;;;;;5.57;0.75;;;;;;;-146.73;100.00;56421.06;6125734;23;20051;-92
2022/11/18 13:29:28;;;;;;;11.85;2.20;;;;;;;-146.73;100.00;56421.06;6127281;23;20028;-94
2022/11/18 13:32:03;;;;;;;7.18;1.00;;;;;;;-146.73;100.00;56421.06;6127605;23;20041;-93
2022/11/18 13:34:54;;;;;;;4.43;0.80;;;;;;;-146.73;100.00;56421.06;6126683;23;20036;-93